createdAt,value
2019-03-24T00:00:01.180Z,30.83
2019-03-24T00:02:29.147Z,33.17
2019-03-24T00:04:56.904Z,28.50
2019-03-24T00:07:24.756Z,28.80
2019-03-24T00:09:52.442Z,28.70
2019-03-24T00:12:20.528Z,29.47
2019-03-24T00:14:48.262Z,30.77
2019-03-24T00:17:15.859Z,30.70
2019-03-24T00:19:43.913Z,29.73
2019-03-24T00:22:11.630Z,29.83
2019-03-24T00:24:39.327Z,29.57
2019-03-24T00:27:07.193Z,30.20
2019-03-24T00:29:34.842Z,31.43
2019-03-24T00:32:02.607Z,30.90
2019-03-24T00:34:30.341Z,28.57
2019-03-24T00:36:58.348Z,32.07
2019-03-24T00:39:26.287Z,30.57
2019-03-24T00:41:54.019Z,32.20
2019-03-24T00:44:21.790Z,33.20
2019-03-24T00:46:49.580Z,30.13
2019-03-24T00:49:17.389Z,31.07
2019-03-24T00:51:45.104Z,30.30
2019-03-24T00:54:13.225Z,30.47
2019-03-24T00:56:40.963Z,30.80
2019-03-24T00:59:08.797Z,29.70
2019-03-24T01:01:36.445Z,29.90
2019-03-24T01:04:04.362Z,33.50
2019-03-24T01:06:32.101Z,31.90
2019-03-24T01:08:59.931Z,34.17
2019-03-24T01:11:27.550Z,31.80
2019-03-24T01:14:42.240Z,31.63
2019-03-24T01:20:37.026Z,31.47
2019-03-24T01:23:04.711Z,32.93
2019-03-24T01:32:00.788Z,30.77
2019-03-24T01:34:28.497Z,31.70
2019-03-24T01:37:07.361Z,31.80
2019-03-24T01:39:35.045Z,31.30
2019-03-24T01:54:19.741Z,32.80
2019-03-24T01:56:47.447Z,32.40
2019-03-24T01:59:55.755Z,31.70
2019-03-24T02:11:37.865Z,31.60
2019-03-24T02:14:05.655Z,31.87
2019-03-24T02:17:13.935Z,30.70
2019-03-24T02:23:27.997Z,33.80
2019-03-24T02:29:28.705Z,32.30
2019-03-24T02:35:43.176Z,30.13
2019-03-24T02:41:43.686Z,31.37
2019-03-24T02:48:17.729Z,31.80
2019-03-24T02:54:05.988Z,31.47
2019-03-24T02:59:47.325Z,37.10
2019-03-24T03:02:15.447Z,35.17
2019-03-24T03:04:43.244Z,34.87
2019-03-24T03:16:38.286Z,33.77
2019-03-24T03:25:52.459Z,34.37
2019-03-24T03:28:20.211Z,35.13
2019-03-24T03:30:55.359Z,34.10
2019-03-24T03:33:34.898Z,36.00
2019-03-24T03:45:40.057Z,36.10
2019-03-24T03:48:07.745Z,33.73
2019-03-24T03:51:15.949Z,34.17
2019-03-24T03:53:44.000Z,33.80
2019-03-24T03:56:52.293Z,34.57
2019-03-24T04:06:07.126Z,30.00
2019-03-24T04:11:54.909Z,36.07
2019-03-24T04:15:03.189Z,36.10
2019-03-24T04:18:02.597Z,36.87
2019-03-24T04:27:18.223Z,35.67
2019-03-24T04:30:05.157Z,33.23
2019-03-24T04:32:33.253Z,35.90
2019-03-24T04:35:20.039Z,37.93
2019-03-24T04:38:07.402Z,36.00
2019-03-24T04:40:54.366Z,36.20
2019-03-24T04:43:41.711Z,33.80
2019-03-24T04:49:30.075Z,34.07
2019-03-24T05:04:02.939Z,33.67
2019-03-24T05:12:34.197Z,36.57
2019-03-24T05:15:13.508Z,37.00
2019-03-24T05:18:12.727Z,36.47
2019-03-24T05:24:26.817Z,38.20
2019-03-24T05:35:48.010Z,37.90
2019-03-24T05:45:03.848Z,37.93
2019-03-24T05:53:12.197Z,37.83
2019-03-24T05:55:40.356Z,35.97
2019-03-24T05:58:08.408Z,37.37
2019-03-24T06:04:16.302Z,34.63
2019-03-24T06:13:51.440Z,36.63
2019-03-24T06:16:19.128Z,33.47
2019-03-24T06:21:48.734Z,35.70
2019-03-24T06:28:03.060Z,36.03
2019-03-24T06:33:51.535Z,31.83
2019-03-24T06:36:19.308Z,35.20
2019-03-24T06:38:58.730Z,31.27
2019-03-24T06:47:57.642Z,34.10
2019-03-24T06:50:43.903Z,33.07
2019-03-24T06:53:11.666Z,30.97
2019-03-24T07:02:01.334Z,31.70
2019-03-24T07:07:09.508Z,31.57
2019-03-24T07:09:56.446Z,31.03
2019-03-24T07:12:24.199Z,31.67
2019-03-24T07:14:51.880Z,31.80
2019-03-24T07:17:19.526Z,29.17
2019-03-24T07:25:49.787Z,29.97
2019-03-24T07:28:17.963Z,29.77
2019-03-24T07:46:02.598Z,31.77
2019-03-24T07:48:31.236Z,28.23
2019-03-24T07:50:58.872Z,31.17
2019-03-24T07:54:07.156Z,30.97
2019-03-24T07:56:34.886Z,28.63
2019-03-24T07:59:02.777Z,30.53
2019-03-24T08:01:42.590Z,29.70
2019-03-24T08:07:22.996Z,29.03
2019-03-24T08:09:50.712Z,28.90
2019-03-24T08:12:37.776Z,27.90
2019-03-24T08:15:16.192Z,29.47
2019-03-24T08:17:56.557Z,28.47
2019-03-24T08:20:24.655Z,29.57
2019-03-24T08:22:52.389Z,30.57
2019-03-24T08:25:20.203Z,28.73
2019-03-24T08:27:48.037Z,28.87
2019-03-24T08:30:28.807Z,28.60
2019-03-24T08:32:56.177Z,27.83
2019-03-24T08:35:23.969Z,29.50
2019-03-24T08:37:52.266Z,29.80
2019-03-24T08:40:20.149Z,27.27
2019-03-24T08:42:47.924Z,27.80
2019-03-24T08:45:25.041Z,28.33
2019-03-24T08:47:53.077Z,29.33
2019-03-24T08:50:20.926Z,27.63
2019-03-24T08:52:48.812Z,27.70
2019-03-24T08:55:16.645Z,28.03
2019-03-24T08:57:45.053Z,25.10
2019-03-24T09:00:13.155Z,28.73
2019-03-24T09:02:41.104Z,27.47
2019-03-24T09:05:08.831Z,27.87
2019-03-24T09:07:36.682Z,27.43
2019-03-24T09:10:05.087Z,27.37
2019-03-24T09:12:32.930Z,25.27
2019-03-24T09:15:00.995Z,27.77
2019-03-24T09:17:28.856Z,27.57
2019-03-24T09:19:56.788Z,26.87
2019-03-24T09:22:24.578Z,24.97
2019-03-24T09:24:52.768Z,26.40
2019-03-24T09:27:20.960Z,26.50
2019-03-24T09:29:48.712Z,27.13
2019-03-24T09:32:16.369Z,27.87
2019-03-24T09:34:44.620Z,27.10
2019-03-24T09:37:12.438Z,27.73
2019-03-24T09:39:40.433Z,27.20
2019-03-24T09:42:08.191Z,27.17
2019-03-24T09:44:35.916Z,29.70
2019-03-24T09:47:03.655Z,28.63
2019-03-24T09:49:32.156Z,29.67
2019-03-24T09:51:59.996Z,28.10
2019-03-24T09:54:27.869Z,26.87
2019-03-24T09:56:55.671Z,27.87
2019-03-24T09:59:23.453Z,29.87
2019-03-24T10:01:51.137Z,28.37
2019-03-24T10:04:18.838Z,31.60
2019-03-24T10:06:46.607Z,29.20
2019-03-24T10:09:14.407Z,27.57
2019-03-24T10:11:42.131Z,28.70
2019-03-24T10:14:11.786Z,25.67
2019-03-24T10:16:39.481Z,28.67
2019-03-24T10:19:14.010Z,25.80
2019-03-24T10:21:36.793Z,28.00
2019-03-24T10:24:04.503Z,28.40
2019-03-24T10:26:32.724Z,27.87
2019-03-24T10:29:01.530Z,26.83
2019-03-24T10:31:29.643Z,28.07
2019-03-24T10:33:57.549Z,27.60
2019-03-24T10:36:25.538Z,27.07
2019-03-24T10:38:53.338Z,27.77
2019-03-24T10:41:21.091Z,24.73
2019-03-24T10:43:48.975Z,23.10
2019-03-24T10:46:16.807Z,25.20
2019-03-24T10:48:44.535Z,23.80
2019-03-24T10:51:12.366Z,24.57
2019-03-24T10:53:40.178Z,24.03
2019-03-24T10:56:07.924Z,24.23
2019-03-24T10:58:36.068Z,26.80
2019-03-24T11:01:04.273Z,24.27
2019-03-24T11:03:32.040Z,24.57
2019-03-24T11:05:59.731Z,23.50
2019-03-24T11:08:27.869Z,25.97
2019-03-24T11:10:55.522Z,24.20
2019-03-24T11:13:23.244Z,23.50
2019-03-24T11:15:51.348Z,22.60
2019-03-24T11:18:19.078Z,24.67
2019-03-24T11:20:46.992Z,24.13
2019-03-24T11:23:14.770Z,24.47
2019-03-24T11:25:42.463Z,24.40
2019-03-24T11:28:10.242Z,22.87
2019-03-24T11:30:38.031Z,24.40
2019-03-24T11:33:05.732Z,24.77
2019-03-24T11:35:33.470Z,23.13
2019-03-24T11:38:01.319Z,22.17
2019-03-24T11:40:29.066Z,22.37
2019-03-24T11:42:56.901Z,23.57
2019-03-24T11:45:24.923Z,24.30
2019-03-24T11:47:52.732Z,21.30
2019-03-24T11:50:20.761Z,23.47
2019-03-24T11:52:48.576Z,22.73
2019-03-24T11:55:16.449Z,22.60
2019-03-24T11:57:44.422Z,23.70
2019-03-24T12:00:13.077Z,22.43
2019-03-24T12:02:41.164Z,25.47
2019-03-24T12:05:09.371Z,25.20
2019-03-24T12:07:38.918Z,25.93
2019-03-24T12:10:08.619Z,25.80
2019-03-24T12:12:36.690Z,23.13
2019-03-24T12:15:05.592Z,26.77
2019-03-24T12:17:33.416Z,24.50
2019-03-24T12:20:01.241Z,25.20
2019-03-24T12:22:29.291Z,24.20
2019-03-24T12:24:57.069Z,25.77
2019-03-24T12:27:25.181Z,24.37
2019-03-24T12:29:52.904Z,26.87
2019-03-24T12:32:21.133Z,24.40
2019-03-24T12:34:48.868Z,25.90
2019-03-24T12:37:17.010Z,26.13
2019-03-24T12:39:44.652Z,24.33
2019-03-24T12:42:12.467Z,23.43
2019-03-24T12:44:40.694Z,22.73
2019-03-24T12:47:08.411Z,25.93
2019-03-24T12:49:36.201Z,23.43
2019-03-24T12:52:03.990Z,25.27
2019-03-24T12:54:31.782Z,23.70
2019-03-24T12:56:59.620Z,23.60
2019-03-24T12:59:27.373Z,21.77
2019-03-24T13:01:55.078Z,24.33
2019-03-24T13:04:22.813Z,23.10
2019-03-24T13:06:50.512Z,23.43
2019-03-24T13:09:18.251Z,23.70
2019-03-24T13:11:46.018Z,22.77
2019-03-24T13:14:14.090Z,24.63
2019-03-24T13:16:42.191Z,22.93
2019-03-24T13:19:10.425Z,22.77
2019-03-24T13:21:38.125Z,23.83
2019-03-24T13:24:05.890Z,22.20
2019-03-24T13:26:33.550Z,23.03
2019-03-24T13:29:01.326Z,24.07
2019-03-24T13:31:29.769Z,23.33
2019-03-24T13:33:57.530Z,23.13
2019-03-24T13:36:25.280Z,23.47
2019-03-24T13:38:53.021Z,22.50
2019-03-24T13:41:21.258Z,23.17
2019-03-24T13:43:49.167Z,20.17
2019-03-24T13:46:16.892Z,23.63
2019-03-24T13:48:44.636Z,22.47
2019-03-24T13:51:12.391Z,20.20
2019-03-24T13:53:40.126Z,21.57
2019-03-24T13:56:07.943Z,23.80
2019-03-24T13:58:35.683Z,23.53
2019-03-24T14:01:04.846Z,21.47
2019-03-24T14:03:32.634Z,21.57
2019-03-24T14:06:00.291Z,22.60
2019-03-24T14:08:27.900Z,22.40
2019-03-24T14:10:55.673Z,21.67
2019-03-24T14:13:23.398Z,19.93
2019-03-24T14:15:51.899Z,21.03
2019-03-24T14:18:20.265Z,19.67
2019-03-24T14:20:48.164Z,21.10
2019-03-24T14:23:16.336Z,21.40
2019-03-24T14:25:44.121Z,20.37
2019-03-24T14:28:12.307Z,18.17
2019-03-24T14:31:21.336Z,18.60
2019-03-24T14:36:47.116Z,22.53
2019-03-24T14:39:14.876Z,21.13
2019-03-24T14:41:42.615Z,20.37
2019-03-24T14:44:10.406Z,20.80
2019-03-24T14:46:38.116Z,19.43
2019-03-24T14:52:40.395Z,20.23
2019-03-24T14:55:08.548Z,19.60
2019-03-24T14:57:36.817Z,20.57
2019-03-24T15:00:46.243Z,19.70
2019-03-24T15:05:53.379Z,18.37
2019-03-24T15:11:31.865Z,16.93
2019-03-24T15:13:59.652Z,18.03
2019-03-24T15:16:27.805Z,17.60
2019-03-24T15:18:55.683Z,17.03
2019-03-24T15:21:23.741Z,16.07
2019-03-24T15:23:51.565Z,17.27
2019-03-24T15:26:19.557Z,14.70
2019-03-24T15:29:06.491Z,15.40
2019-03-24T15:32:06.024Z,14.20
2019-03-24T15:34:33.815Z,15.47
2019-03-24T15:37:01.819Z,15.03
2019-03-24T15:39:29.755Z,12.80
2019-03-24T15:41:57.525Z,14.10
2019-03-24T15:44:25.258Z,13.60
2019-03-24T15:47:12.232Z,12.73
2019-03-24T15:49:39.950Z,11.07
2019-03-24T15:52:07.795Z,11.90
2019-03-24T15:54:35.880Z,12.33
2019-03-24T15:57:04.004Z,12.00
2019-03-24T15:59:50.965Z,12.47
2019-03-24T16:02:18.874Z,11.40
2019-03-24T16:04:47.008Z,13.33
2019-03-24T16:07:14.800Z,14.50
2019-03-24T16:09:42.534Z,13.20
2019-03-24T16:12:10.324Z,13.23
2019-03-24T16:14:38.071Z,12.10
2019-03-24T16:17:05.831Z,11.00
2019-03-24T16:19:33.612Z,11.37
2019-03-24T16:22:01.678Z,12.30
2019-03-24T16:24:30.176Z,10.00
2019-03-24T16:27:09.705Z,9.80
2019-03-24T16:29:37.334Z,10.80
2019-03-24T16:35:51.100Z,9.17
2019-03-24T16:40:57.727Z,11.57
2019-03-24T16:43:37.381Z,12.10
2019-03-24T16:46:05.174Z,12.33
2019-03-24T16:48:37.054Z,11.73
2019-03-24T16:51:09.358Z,11.40
2019-03-24T16:53:37.103Z,11.33
2019-03-24T16:56:04.856Z,10.70
2019-03-24T16:58:32.652Z,11.17
2019-03-24T17:01:00.401Z,10.57
2019-03-24T17:03:28.130Z,10.00
2019-03-24T17:06:15.007Z,10.50
2019-03-24T17:08:42.779Z,11.50
2019-03-24T17:11:11.642Z,11.17
2019-03-24T17:13:39.420Z,11.47
2019-03-24T17:16:47.650Z,11.33
2019-03-24T17:19:15.407Z,11.63
2019-03-24T17:21:49.904Z,11.33
2019-03-24T17:24:23.190Z,11.43
2019-03-24T17:27:10.025Z,13.40
2019-03-24T17:29:37.824Z,12.03
2019-03-24T17:32:24.638Z,11.93
2019-03-24T17:38:07.540Z,12.07
2019-03-24T17:40:38.706Z,12.40
2019-03-24T17:43:15.282Z,11.73
2019-03-24T17:49:17.546Z,12.37
2019-03-24T17:51:45.282Z,11.73
2019-03-24T17:54:13.020Z,11.13
2019-03-24T17:56:40.819Z,12.83
2019-03-24T17:59:08.894Z,12.23
2019-03-24T18:01:36.629Z,12.70
2019-03-24T18:04:04.841Z,12.33
2019-03-24T18:06:32.603Z,11.60
2019-03-24T18:09:00.345Z,12.03
2019-03-24T18:11:28.121Z,14.17
2019-03-24T18:13:55.881Z,12.63
2019-03-24T18:16:24.273Z,12.00
2019-03-24T18:18:51.923Z,13.33
2019-03-24T18:21:38.931Z,11.70
2019-03-24T18:30:00.871Z,13.07
2019-03-24T18:32:28.643Z,13.17
2019-03-24T18:34:57.165Z,15.07
2019-03-24T18:37:24.869Z,13.90
2019-03-24T18:39:52.571Z,15.20
2019-03-24T18:42:20.716Z,14.10
2019-03-24T18:44:48.372Z,14.83
2019-03-24T18:47:17.995Z,13.27
2019-03-24T18:49:46.200Z,13.50
2019-03-24T18:52:22.268Z,12.70
2019-03-24T18:58:05.438Z,12.50
2019-03-24T19:00:33.179Z,11.70
2019-03-24T19:03:00.951Z,12.07
2019-03-24T19:05:28.853Z,10.53
2019-03-24T19:07:56.593Z,10.90
2019-03-24T19:10:24.369Z,9.30
2019-03-24T19:19:09.121Z,9.13
2019-03-24T19:21:36.852Z,8.60
2019-03-24T19:24:04.625Z,9.27
2019-03-24T19:26:32.366Z,8.77
2019-03-24T19:29:19.668Z,8.20
2019-03-24T19:34:49.913Z,7.37
2019-03-24T19:37:36.830Z,7.27
2019-03-24T19:45:50.057Z,6.00
2019-03-24T19:48:17.990Z,5.50
2019-03-24T19:50:45.644Z,5.37
2019-03-24T19:53:13.839Z,4.57
2019-03-24T19:58:55.963Z,4.30
2019-03-24T20:01:23.932Z,4.50
2019-03-24T20:03:51.713Z,4.30
2019-03-24T20:06:19.538Z,4.00
2019-03-24T20:08:47.184Z,4.10
2019-03-24T20:11:34.482Z,3.80
2019-03-24T20:14:02.218Z,4.30
2019-03-24T20:16:30.038Z,4.27
2019-03-24T20:19:17.021Z,3.70
2019-03-24T20:21:56.799Z,3.97
2019-03-24T20:24:24.586Z,4.03
2019-03-24T20:26:52.365Z,3.67
2019-03-24T20:32:01.056Z,3.90
2019-03-24T20:40:43.227Z,3.00
2019-03-24T20:43:11.084Z,3.50
2019-03-24T20:45:57.883Z,3.77
2019-03-24T20:48:38.033Z,4.30
2019-03-24T20:51:18.007Z,3.60
2019-03-24T20:53:45.789Z,2.93
2019-03-24T20:56:13.539Z,3.40
2019-03-24T20:58:41.491Z,3.00
2019-03-24T21:01:09.247Z,3.00
2019-03-24T21:03:37.348Z,3.33
2019-03-24T21:06:05.005Z,3.00
2019-03-24T21:08:32.768Z,3.00
2019-03-24T21:14:00.230Z,3.00
2019-03-24T21:16:28.088Z,2.50
2019-03-24T21:18:55.845Z,3.27
2019-03-24T21:21:42.697Z,2.60
2019-03-24T21:24:29.641Z,2.67
2019-03-24T21:26:57.384Z,2.97
2019-03-24T21:29:25.145Z,3.37
2019-03-24T21:31:55.144Z,3.67
2019-03-24T21:34:51.278Z,3.33
2019-03-24T21:37:18.927Z,3.27
2019-03-24T21:40:18.237Z,2.87
2019-03-24T21:42:45.935Z,3.00
2019-03-24T21:45:54.292Z,2.80
2019-03-24T21:48:41.197Z,4.10
2019-03-24T21:51:08.871Z,3.07
2019-03-24T21:53:40.922Z,2.87
2019-03-24T21:56:16.037Z,3.10
2019-03-24T21:58:43.779Z,2.63
2019-03-24T22:01:11.878Z,2.90
2019-03-24T22:03:58.822Z,3.57
2019-03-24T22:06:26.515Z,3.23
2019-03-24T22:09:12.573Z,2.97
2019-03-24T22:11:40.312Z,3.17
2019-03-24T22:14:08.282Z,3.80
2019-03-24T22:16:36.337Z,2.77
2019-03-24T22:19:04.101Z,3.40
2019-03-24T22:21:32.212Z,3.00
2019-03-24T22:23:59.978Z,3.00
2019-03-24T22:26:28.036Z,3.67
2019-03-24T22:28:56.119Z,2.80
2019-03-24T22:34:25.457Z,3.33
2019-03-24T22:36:53.214Z,3.03
2019-03-24T22:39:20.962Z,3.37
2019-03-24T22:41:48.723Z,2.30
2019-03-24T22:44:35.658Z,3.10
2019-03-24T22:47:03.429Z,2.70
2019-03-24T22:49:50.299Z,3.10
2019-03-24T22:52:18.020Z,3.13
2019-03-24T23:04:02.389Z,2.93
2019-03-24T23:06:30.115Z,3.33
2019-03-24T23:09:17.387Z,3.03
2019-03-24T23:12:04.447Z,3.60
2019-03-24T23:18:14.911Z,2.50
2019-03-24T23:24:16.977Z,2.30
2019-03-24T23:26:46.594Z,3.50
2019-03-24T23:29:14.395Z,3.30
2019-03-24T23:32:01.261Z,3.40
2019-03-24T23:34:28.958Z,3.03
2019-03-24T23:37:15.915Z,2.93
2019-03-24T23:45:24.354Z,3.43
2019-03-24T23:47:52.052Z,2.77
2019-03-24T23:50:19.788Z,2.30
2019-03-24T23:52:47.424Z,3.40
2019-03-24T23:55:15.152Z,2.70
2019-03-24T23:57:42.745Z,3.30
